Time;durP1;ratioP1;P1;durP2;ratioP2;P2;SDS_P1;SDS_P2;PMS_P1;PMS_P2;Temp;Humidity;BMP_temperature;BMP_pressure;BME280_temperature;BME280_humidity;BME280_pressure;Samples;Min_cycle;Max_cycle;Signal;HPM_P1;HPM_P2
2022/01/09 00:01:20;;;;;;;0.60;0.60;;;;;;;-145.69;100.00;71213.38;5073483;28;20256;-74
2022/01/09 00:03:47;;;;;;;0.70;0.70;;;;;;;-145.69;100.00;71221.31;5073208;28;20728;-74
2022/01/09 00:06:14;;;;;;;0.63;0.60;;;;;;;-145.69;100.00;71221.31;5073293;28;20230;-74
2022/01/09 00:08:41;;;;;;;0.87;0.80;;;;;;;-145.69;100.00;71199.44;5072899;28;20199;-75
2022/01/09 00:11:07;;;;;;;0.70;0.70;;;;;;;-145.69;100.00;71203.41;5073061;28;20203;-74
2022/01/09 00:13:35;;;;;;;0.93;0.70;;;;;;;-145.69;100.00;71197.44;5073123;28;20654;-74
2022/01/09 00:16:02;;;;;;;0.93;0.77;;;;;;;-145.69;100.00;71201.41;5073165;28;20206;-74
2022/01/09 00:18:28;;;;;;;0.77;0.63;;;;;;;-145.69;100.00;71179.53;5072956;28;20679;-74
2022/01/09 00:20:55;;;;;;;0.70;0.70;;;;;;;-145.69;100.00;71191.47;5073033;28;20202;-74
2022/01/09 00:23:21;;;;;;;0.90;0.57;;;;;;;-145.69;100.00;71183.50;5073033;28;20194;-74
2022/01/09 00:25:48;;;;;;;0.60;0.60;;;;;;;-145.69;100.00;71183.50;5072813;28;20265;-74
2022/01/09 00:28:16;;;;;;;0.60;0.60;;;;;;;-145.69;100.00;71181.53;5073099;28;20203;-74
2022/01/09 00:30:43;;;;;;;1.00;0.83;;;;;;;-145.69;100.00;71175.56;5073095;28;20202;-74
2022/01/09 00:33:10;;;;;;;1.00;0.70;;;;;;;-145.69;100.00;71175.56;5072999;28;20277;-74
2022/01/09 00:35:36;;;;;;;0.60;0.60;;;;;;;-145.69;100.00;71187.50;5072901;28;20203;-74
2022/01/09 00:38:03;;;;;;;0.60;0.60;;;;;;;-145.69;100.00;71199.44;5072431;28;20256;-73
2022/01/09 00:40:29;;;;;;;0.73;0.73;;;;;;;-145.69;100.00;71203.41;5072986;28;20198;-73
2022/01/09 00:42:55;;;;;;;0.80;0.80;;;;;;;-145.69;100.00;71201.41;5072598;28;20284;-73
2022/01/09 00:45:22;;;;;;;0.80;0.80;;;;;;;-145.69;100.00;71191.47;5072790;28;20230;-74
2022/01/09 00:47:50;;;;;;;0.60;0.60;;;;;;;-145.69;100.00;71205.41;5072935;28;20199;-74
2022/01/09 00:50:16;;;;;;;0.60;0.60;;;;;;;-145.69;100.00;71215.34;5072781;28;20206;-73
2022/01/09 00:52:43;;;;;;;0.80;0.80;;;;;;;-145.69;100.00;71207.38;5072607;28;20199;-74
2022/01/09 00:55:11;;;;;;;0.60;0.60;;;;;;;-145.69;100.00;71215.34;5072907;28;20207;-74
2022/01/09 00:57:37;;;;;;;0.73;0.60;;;;;;;-145.69;100.00;71215.34;5057403;28;20199;-74
2022/01/09 01:00:07;;;;;;;0.87;0.80;;;;;;;-145.69;100.00;71205.41;5052746;28;20196;-74
2022/01/09 01:02:33;;;;;;;0.87;0.80;;;;;;;-145.69;100.00;71207.38;5052606;28;20199;-73
2022/01/09 01:05:01;;;;;;;0.70;0.70;;;;;;;-145.69;100.00;71203.41;5052466;28;20231;-74
2022/01/09 01:07:28;;;;;;;0.50;0.50;;;;;;;-145.69;100.00;71193.47;5063079;28;20203;-73
2022/01/09 01:09:56;;;;;;;0.43;0.43;;;;;;;-145.69;100.00;71181.53;5072614;28;20264;-73
2022/01/09 01:12:24;;;;;;;0.60;0.60;;;;;;;-145.69;100.00;71191.47;5072480;28;20202;-74
2022/01/09 01:14:50;;;;;;;0.50;0.50;;;;;;;-145.69;100.00;71179.53;5072622;28;20210;-74
2022/01/09 01:17:17;;;;;;;1.13;0.60;;;;;;;-145.69;100.00;71189.47;5072509;28;20210;-74
2022/01/09 01:19:43;;;;;;;0.50;0.50;;;;;;;-145.69;100.00;71173.56;5072319;28;20206;-73
2022/01/09 01:22:11;;;;;;;0.50;0.50;;;;;;;-145.69;100.00;71179.53;5072613;28;20206;-74
2022/01/09 01:24:38;;;;;;;0.40;0.40;;;;;;;-145.69;100.00;71163.63;5072608;28;20202;-74
2022/01/09 01:27:05;;;;;;;0.50;0.50;;;;;;;-145.69;100.00;71173.56;5072493;28;20234;-74
2022/01/09 01:29:32;;;;;;;0.83;0.60;;;;;;;-145.69;100.00;71159.63;5072387;28;20194;-74
2022/01/09 01:31:59;;;;;;;0.47;0.47;;;;;;;-145.69;100.00;71171.56;5072367;28;20221;-74
2022/01/09 01:34:25;;;;;;;0.40;0.40;;;;;;;-145.69;100.00;71167.59;5072120;28;20294;-74
2022/01/09 01:36:52;;;;;;;0.57;0.57;;;;;;;-145.69;100.00;71171.56;5072242;28;20245;-74
2022/01/09 01:39:19;;;;;;;0.40;0.40;;;;;;;-145.69;100.00;71157.66;5072430;28;20202;-74
2022/01/09 01:41:46;;;;;;;0.50;0.50;;;;;;;-145.69;100.00;71165.59;5072197;28;20231;-74
2022/01/09 01:44:13;;;;;;;0.50;0.50;;;;;;;-145.69;100.00;71161.63;5072398;28;20203;-74
2022/01/09 01:46:40;;;;;;;0.37;0.37;;;;;;;-145.69;100.00;71157.66;5072212;28;20570;-75
2022/01/09 01:49:10;;;;;;;0.40;0.40;;;;;;;-145.69;100.00;71151.69;5072919;28;20221;-74
2022/01/09 01:51:38;;;;;;;0.40;0.40;;;;;;;-145.69;100.00;71163.63;5075881;28;20221;-74
2022/01/09 01:54:05;;;;;;;0.40;0.40;;;;;;;-145.69;100.00;71153.66;5075879;28;20535;-74
2022/01/09 01:56:33;;;;;;;0.50;0.50;;;;;;;-145.69;100.00;71141.72;5075874;28;20195;-74
2022/01/09 01:59:00;;;;;;;0.40;0.40;;;;;;;-145.69;100.00;71139.75;5075513;28;20203;-74
2022/01/09 02:01:26;;;;;;;0.50;0.50;;;;;;;-145.69;100.00;71139.75;5075579;28;20203;-74
2022/01/09 02:03:53;;;;;;;0.47;0.47;;;;;;;-145.69;100.00;71141.72;5075778;28;20202;-74
2022/01/09 02:06:20;;;;;;;0.63;0.63;;;;;;;-145.69;100.00;71131.78;5074670;28;20272;-74
2022/01/09 02:08:48;;;;;;;0.40;0.40;;;;;;;-145.69;100.00;71147.69;5075617;28;20202;-74
2022/01/09 02:11:14;;;;;;;0.50;0.50;;;;;;;-145.69;100.00;71149.69;5075220;28;20203;-73
2022/01/09 02:13:45;;;;;;;0.47;0.47;;;;;;;-145.69;100.00;71147.69;5075378;28;20680;-74
2022/01/09 02:16:16;;;;;;;0.40;0.40;;;;;;;-145.69;100.00;71139.75;5074807;28;20198;-74
2022/01/09 02:18:43;;;;;;;0.37;0.37;;;;;;;-145.69;100.00;71135.75;5075244;28;20289;-74
2022/01/09 02:21:11;;;;;;;0.40;0.40;;;;;;;-145.69;100.00;71131.78;5075322;28;20209;-74
2022/01/09 02:23:40;;;;;;;0.50;0.50;;;;;;;-145.69;100.00;71125.81;5075338;28;20202;-74
2022/01/09 02:26:06;;;;;;;0.40;0.40;;;;;;;-145.69;100.00;71121.84;5075062;28;20222;-74
2022/01/09 02:28:33;;;;;;;0.40;0.40;;;;;;;-145.69;100.00;71119.84;5075060;28;20672;-75
2022/01/09 02:30:59;;;;;;;0.77;0.40;;;;;;;-145.69;100.00;71121.84;5074531;28;20649;-74
2022/01/09 02:33:25;;;;;;;0.40;0.40;;;;;;;-145.69;100.00;71105.91;5074961;28;20738;-74
2022/01/09 02:35:53;;;;;;;0.50;0.50;;;;;;;-145.69;100.00;71095.97;5075091;28;20202;-74
2022/01/09 02:38:21;;;;;;;0.40;0.40;;;;;;;-145.69;100.00;71105.91;5074920;28;20673;-74
2022/01/09 02:40:51;;;;;;;0.40;0.40;;;;;;;-145.69;100.00;71092.00;5074642;28;20203;-75
2022/01/09 02:43:18;;;;;;;0.43;0.40;;;;;;;-145.69;100.00;71092.00;5074746;28;20250;-75
2022/01/09 02:45:48;;;;;;;0.50;0.50;;;;;;;-145.69;100.00;71078.06;5074804;28;20218;-74
2022/01/09 02:48:14;;;;;;;0.50;0.50;;;;;;;-145.69;100.00;71078.06;5075010;28;20203;-74
2022/01/09 02:50:51;;;;;;;0.83;0.50;;;;;;;-145.69;100.00;71078.06;5074717;28;20202;-74
2022/01/09 02:53:20;;;;;;;0.50;0.50;;;;;;;-145.69;100.00;71076.06;5074666;28;20230;-75
2022/01/09 02:55:49;;;;;;;0.73;0.30;;;;;;;-145.69;100.00;71084.03;5074566;28;20211;-75
2022/01/09 02:58:16;;;;;;;0.50;0.50;;;;;;;-145.69;100.00;71092.00;5074716;28;20202;-74
2022/01/09 03:00:44;;;;;;;0.40;0.40;;;;;;;-145.69;100.00;71088.00;5073295;28;20434;-75
2022/01/09 03:03:11;;;;;;;0.63;0.47;;;;;;;-145.69;100.00;71090.00;5070550;28;20195;-75
2022/01/09 03:05:41;;;;;;;0.33;0.33;;;;;;;-145.69;100.00;71092.00;5054348;28;20227;-74
2022/01/09 03:08:08;;;;;;;0.43;0.43;;;;;;;-145.69;100.00;71093.97;5057329;28;20971;-74
2022/01/09 03:10:35;;;;;;;0.30;0.30;;;;;;;-145.69;100.00;71090.00;5074431;28;20199;-75
2022/01/09 03:13:05;;;;;;;0.40;0.40;;;;;;;-145.69;100.00;71099.94;5074309;28;20202;-74
2022/01/09 03:15:31;;;;;;;0.50;0.50;;;;;;;-145.69;100.00;71092.00;5074340;28;20214;-75
2022/01/09 03:17:58;;;;;;;0.40;0.40;;;;;;;-145.69;100.00;71088.00;5074207;28;20210;-75
2022/01/09 03:20:25;;;;;;;0.40;0.40;;;;;;;-145.69;100.00;71086.03;5074065;28;20198;-75
2022/01/09 03:22:53;;;;;;;0.40;0.40;;;;;;;-145.69;100.00;71086.03;5074265;28;20249;-74
2022/01/09 03:25:20;;;;;;;0.47;0.40;;;;;;;-145.69;100.00;71097.97;5074071;28;20203;-75
2022/01/09 03:27:49;;;;;;;0.40;0.40;;;;;;;-145.69;100.00;71092.00;5074136;28;20203;-75
2022/01/09 03:30:18;;;;;;;0.30;0.30;;;;;;;-145.69;100.00;71101.94;5073736;28;20278;-75
2022/01/09 03:32:45;;;;;;;0.40;0.40;;;;;;;-145.69;100.00;71099.94;5073817;28;20210;-75
2022/01/09 03:35:14;;;;;;;0.30;0.30;;;;;;;-145.69;100.00;71103.94;5073713;28;20687;-74
2022/01/09 03:37:42;;;;;;;1.80;0.50;;;;;;;-145.69;100.00;71113.88;5073913;28;20202;-75
2022/01/09 03:40:11;;;;;;;0.43;0.43;;;;;;;-145.69;100.00;71119.84;5073972;28;20210;-74
2022/01/09 03:42:37;;;;;;;0.40;0.40;;;;;;;-145.69;100.00;71113.88;5073567;28;20227;-74
2022/01/09 03:45:06;;;;;;;0.30;0.30;;;;;;;-145.69;100.00;71133.78;5073613;28;20202;-75
2022/01/09 03:47:35;;;;;;;0.40;0.40;;;;;;;-145.69;100.00;71123.81;5073440;28;20222;-75
2022/01/09 03:50:01;;;;;;;0.40;0.40;;;;;;;-145.69;100.00;71127.81;5073750;28;20264;-75
2022/01/09 03:52:28;;;;;;;0.40;0.40;;;;;;;-145.69;100.00;71129.78;5073667;28;20225;-75
2022/01/09 03:54:55;;;;;;;0.50;0.50;;;;;;;-145.69;100.00;71131.78;5073426;28;20650;-75
2022/01/09 03:57:21;;;;;;;0.60;0.60;;;;;;;-145.69;100.00;71151.69;5073529;28;20209;-75
2022/01/09 03:59:48;;;;;;;0.50;0.50;;;;;;;-145.69;100.00;71151.69;5073200;28;20199;-74
2022/01/09 04:02:14;;;;;;;0.50;0.50;;;;;;;-145.69;100.00;71157.66;5073192;28;20203;-74
2022/01/09 04:04:42;;;;;;;0.43;0.43;;;;;;;-145.69;100.00;71165.59;5073505;28;20207;-75
2022/01/09 04:07:10;;;;;;;0.40;0.40;;;;;;;-145.69;100.00;71167.59;5073381;28;20638;-74
2022/01/09 04:09:39;;;;;;;1.03;0.40;;;;;;;-145.69;100.00;71167.59;5073024;28;20205;-74
2022/01/09 04:12:14;;;;;;;0.50;0.50;;;;;;;-145.69;100.00;71163.63;5072836;28;20596;-74
2022/01/09 04:14:40;;;;;;;0.40;0.40;;;;;;;-145.69;100.00;71171.56;5073113;28;20202;-74
2022/01/09 04:17:11;;;;;;;0.47;0.47;;;;;;;-145.69;100.00;71179.53;5073076;28;20664;-74
2022/01/09 04:19:38;;;;;;;0.50;0.50;;;;;;;-145.69;100.00;71199.44;5073248;28;20198;-74
2022/01/09 04:22:06;;;;;;;0.60;0.50;;;;;;;-145.69;100.00;71199.44;5073081;28;20592;-74
2022/01/09 04:24:32;;;;;;;0.40;0.40;;;;;;;-145.69;100.00;71215.34;5072731;28;20202;-74
2022/01/09 04:26:58;;;;;;;0.43;0.43;;;;;;;-145.69;100.00;71255.16;5072937;28;20226;-74
2022/01/09 04:29:25;;;;;;;0.40;0.40;;;;;;;-145.69;100.00;71286.97;5072807;28;20198;-74
2022/01/09 04:31:51;;;;;;;0.40;0.40;;;;;;;-145.69;100.00;71328.78;5073280;28;20199;-74
2022/01/09 04:34:18;;;;;;;0.40;0.40;;;;;;;-145.69;100.00;71346.69;5073054;28;20202;-73
2022/01/09 04:36:44;;;;;;;0.30;0.30;;;;;;;-145.69;100.00;71374.53;5072974;28;20887;-74
2022/01/09 04:39:12;;;;;;;1.27;0.67;;;;;;;-145.69;100.00;71418.31;5072826;28;20676;-73
2022/01/09 04:41:39;;;;;;;0.93;0.83;;;;;;;-145.69;100.00;71428.25;5072666;28;20232;-74
2022/01/09 04:44:05;;;;;;;0.80;0.77;;;;;;;-145.69;100.00;71454.13;5072784;28;20206;-74
2022/01/09 04:46:40;;;;;;;0.97;0.97;;;;;;;-145.69;100.00;71474.03;5072907;28;20592;-74
2022/01/09 04:49:06;;;;;;;0.83;0.80;;;;;;;-145.69;100.00;71491.94;5072778;28;20802;-74
2022/01/09 04:51:33;;;;;;;0.80;0.70;;;;;;;-145.69;100.00;71509.84;5072733;28;20727;-73
2022/01/09 04:53:59;;;;;;;0.57;0.53;;;;;;;-145.69;100.00;71521.78;5072821;28;20213;-74
2022/01/09 04:56:28;;;;;;;0.63;0.50;;;;;;;-145.69;100.00;71545.66;5072326;28;20206;-74
2022/01/09 04:58:55;;;;;;;5.50;0.70;;;;;;;-145.69;100.00;71551.63;5072755;28;20203;-73
2022/01/09 05:01:21;;;;;;;1.43;0.50;;;;;;;-145.69;100.00;71553.63;5072813;28;20207;-73
2022/01/09 05:03:48;;;;;;;0.80;0.40;;;;;;;-145.69;100.00;71557.59;5057177;28;20211;-73
2022/01/09 05:06:14;;;;;;;0.37;0.37;;;;;;;-145.69;100.00;71565.56;5052492;28;20230;-74
2022/01/09 05:08:43;;;;;;;0.40;0.40;;;;;;;-145.69;100.00;71589.44;5052588;28;20203;-73
2022/01/09 05:11:10;;;;;;;0.50;0.50;;;;;;;-145.69;100.00;71593.44;5052429;28;20203;-73
2022/01/09 05:13:38;;;;;;;0.40;0.40;;;;;;;-145.69;100.00;71601.38;5052736;28;20199;-73
2022/01/09 05:16:05;;;;;;;5.67;0.70;;;;;;;-145.69;100.00;71597.41;5052622;28;20200;-73
2022/01/09 05:18:39;;;;;;;0.57;0.57;;;;;;;-145.69;100.00;71603.38;5070798;28;20589;-73
2022/01/09 05:21:06;;;;;;;0.60;0.60;;;;;;;-145.69;100.00;71609.34;5072507;28;20538;-73
2022/01/09 05:23:32;;;;;;;0.57;0.57;;;;;;;-145.69;100.00;71617.31;5072306;28;20547;-73
2022/01/09 05:25:58;;;;;;;0.60;0.60;;;;;;;-145.69;100.00;71615.31;5076313;28;20199;-73
2022/01/09 05:28:25;;;;;;;4.97;0.60;;;;;;;-145.69;100.00;71615.31;5076366;28;20207;-73
2022/01/09 05:30:53;;;;;;;0.70;0.70;;;;;;;-145.69;100.00;71623.28;5076164;28;20210;-72
2022/01/09 05:33:22;;;;;;;0.40;0.40;;;;;;;-145.69;100.00;71617.31;5076180;28;20199;-73
2022/01/09 05:35:48;;;;;;;0.67;0.60;;;;;;;-145.69;100.00;71613.31;5076084;28;20569;-73
2022/01/09 05:38:17;;;;;;;0.50;0.50;;;;;;;-145.69;100.00;71611.34;5075736;28;20267;-72
2022/01/09 05:40:43;;;;;;;0.50;0.50;;;;;;;-145.69;100.00;71621.28;5076166;28;20248;-72
2022/01/09 05:43:10;;;;;;;0.90;0.80;;;;;;;-145.69;100.00;71629.25;5075792;28;20231;-72
2022/01/09 05:45:38;;;;;;;0.70;0.70;;;;;;;-145.69;100.00;71629.25;5075819;28;20199;-73
2022/01/09 05:48:07;;;;;;;1.27;0.80;;;;;;;-145.69;100.00;71627.25;5075803;28;20261;-73
2022/01/09 05:50:33;;;;;;;1.17;1.07;;;;;;;-145.69;100.00;71625.25;5075787;28;20199;-72
2022/01/09 05:53:00;;;;;;;5.27;1.30;;;;;;;-145.69;100.00;71625.25;5075963;28;20198;-73
2022/01/09 05:55:27;;;;;;;2.57;1.43;;;;;;;-145.69;100.00;71629.25;5075820;28;20206;-72
2022/01/09 05:57:53;;;;;;;2.70;1.40;;;;;;;-145.69;100.00;71629.25;5075784;28;20202;-72
2022/01/09 06:00:20;;;;;;;2.70;1.30;;;;;;;-145.69;100.00;71637.19;5075758;28;20203;-72
2022/01/09 06:02:46;;;;;;;0.63;0.63;;;;;;;-145.69;100.00;71633.22;5075628;28;20202;-72
2022/01/09 06:05:14;;;;;;;2.83;0.93;;;;;;;-145.69;100.00;71635.22;5075455;28;20199;-72
2022/01/09 06:07:41;;;;;;;4.00;0.60;;;;;;;-145.69;100.00;71637.19;5075704;28;20554;-72
2022/01/09 06:10:09;;;;;;;0.60;0.50;;;;;;;-145.69;100.00;71639.19;5075340;28;20199;-72
2022/01/09 06:12:37;;;;;;;0.40;0.40;;;;;;;-145.69;100.00;71633.22;5075575;28;20195;-72
2022/01/09 06:15:03;;;;;;;2.83;0.50;;;;;;;-145.69;100.00;71639.19;5075358;28;20203;-72
2022/01/09 06:17:34;;;;;;;0.50;0.50;;;;;;;-145.69;100.00;71645.16;5075338;28;20199;-72
2022/01/09 06:20:04;;;;;;;0.67;0.67;;;;;;;-145.69;100.00;71641.19;5075309;28;20256;-72
2022/01/09 06:22:32;;;;;;;0.60;0.60;;;;;;;-145.69;100.00;71643.19;5075392;28;20195;-72
2022/01/09 06:24:59;;;;;;;1.17;0.50;;;;;;;-145.69;100.00;71657.09;5075381;28;20203;-72
2022/01/09 06:27:26;;;;;;;0.70;0.70;;;;;;;-145.69;100.00;71647.16;5075081;28;20229;-72
2022/01/09 06:29:52;;;;;;;0.77;0.50;;;;;;;-145.69;100.00;71665.06;5075191;28;20573;-72
2022/01/09 06:32:19;;;;;;;0.90;0.80;;;;;;;-145.69;100.00;71669.03;5074994;28;20195;-72
2022/01/09 06:34:45;;;;;;;0.53;0.53;;;;;;;-145.69;100.00;71673.03;5074801;28;20191;-72
2022/01/09 06:37:12;;;;;;;1.57;0.90;;;;;;;-145.69;100.00;71680.97;5075180;28;20207;-72
2022/01/09 06:39:40;;;;;;;1.07;0.90;;;;;;;-145.69;100.00;71677.00;5074766;28;20218;-72
2022/01/09 06:42:07;;;;;;;1.70;0.90;;;;;;;-145.69;100.00;71694.91;5074922;28;20240;-72
2022/01/09 06:44:34;;;;;;;2.93;1.07;;;;;;;-145.69;100.00;71688.94;5074649;28;20225;-73
2022/01/09 06:47:00;;;;;;;2.23;1.17;;;;;;;-145.69;100.00;71702.88;5074968;28;20265;-72
2022/01/09 06:49:27;;;;;;;2.80;1.67;;;;;;;-145.69;100.00;71702.88;5074815;28;20207;-73
2022/01/09 06:51:53;;;;;;;2.53;1.57;;;;;;;-145.69;100.00;71706.84;5074672;28;20727;-73
2022/01/09 06:54:20;;;;;;;4.87;2.20;;;;;;;-145.69;100.00;71704.88;5074514;28;20707;-73
2022/01/09 06:56:48;;;;;;;3.27;2.43;;;;;;;-145.69;100.00;71716.81;5065776;28;20609;-73
2022/01/09 06:59:14;;;;;;;3.90;2.57;;;;;;;-145.69;100.00;71718.78;5054528;28;20637;-73
2022/01/09 07:01:41;;;;;;;7.00;3.43;;;;;;;-145.69;100.00;71728.75;5054513;28;20199;-73
2022/01/09 07:04:07;;;;;;;3.33;2.27;;;;;;;-145.69;100.00;71728.75;5054609;28;20199;-73
2022/01/09 07:06:35;;;;;;;3.97;2.47;;;;;;;-145.69;100.00;71730.72;5054480;28;20203;-72
2022/01/09 07:09:01;;;;;;;9.65;4.65;;;;;;;-145.69;100.00;71740.69;5061850;28;20800;-73
2022/01/09 07:11:28;;;;;;;5.53;3.40;;;;;;;-145.69;100.00;71744.66;5074417;28;20205;-73
2022/01/09 07:13:56;;;;;;;2.47;1.20;;;;;;;-145.69;100.00;71756.59;5074225;28;20195;-73
2022/01/09 07:16:22;;;;;;;0.80;0.80;;;;;;;-145.69;100.00;71752.63;5074378;28;20202;-73
2022/01/09 07:18:49;;;;;;;1.13;0.43;;;;;;;-145.69;100.00;71760.59;5074307;28;20203;-72
2022/01/09 07:21:15;;;;;;;1.03;0.60;;;;;;;-145.69;100.00;71764.56;5074230;28;20202;-73
2022/01/09 07:23:42;;;;;;;5.33;0.80;;;;;;;-145.69;100.00;71768.53;5074188;28;20667;-73
2022/01/09 07:26:08;;;;;;;6.07;2.13;;;;;;;-145.69;100.00;71768.53;5074037;28;20293;-72
2022/01/09 07:28:35;;;;;;;8.83;3.70;;;;;;;-145.69;100.00;71766.56;5073761;28;20231;-73
2022/01/09 07:31:03;;;;;;;3.30;1.97;;;;;;;-145.69;100.00;71774.50;5073866;28;20732;-73
2022/01/09 07:33:30;;;;;;;4.07;2.63;;;;;;;-145.69;100.00;71790.44;5074001;28;20257;-73
2022/01/09 07:35:56;;;;;;;2.13;1.50;;;;;;;-145.69;100.00;71796.41;5073970;28;20206;-74
2022/01/09 07:38:23;;;;;;;1.50;1.20;;;;;;;-145.69;100.00;71804.38;5073644;28;20203;-73
2022/01/09 07:40:51;;;;;;;3.57;2.30;;;;;;;-145.69;100.00;71810.34;5073698;28;20569;-73
2022/01/09 07:43:18;;;;;;;4.07;1.13;;;;;;;-145.69;100.00;71806.34;5073330;28;20317;-74
2022/01/09 07:45:44;;;;;;;1.63;0.80;;;;;;;-145.69;100.00;71794.41;5073743;28;20601;-74
2022/01/09 07:48:12;;;;;;;0.60;0.60;;;;;;;-145.69;100.00;71802.38;5072933;28;20222;-73
2022/01/09 07:50:39;;;;;;;1.87;1.00;;;;;;;-145.69;100.00;71820.28;5073566;28;20206;-73
2022/01/09 07:53:05;;;;;;;1.20;1.00;;;;;;;-145.69;100.00;71814.31;5073516;28;20252;-74
2022/01/09 07:55:32;;;;;;;5.60;1.70;;;;;;;-145.69;100.00;71824.25;5073467;28;20203;-74
2022/01/09 07:57:59;;;;;;;4.73;1.70;;;;;;;-145.69;100.00;71822.28;5073589;28;20289;-74
2022/01/09 08:00:25;;;;;;;2.90;1.80;;;;;;;-145.69;100.00;71834.22;5073543;28;20554;-74
2022/01/09 08:02:52;;;;;;;6.87;2.40;;;;;;;-145.69;100.00;71846.16;5073505;28;20210;-73
2022/01/09 08:05:19;;;;;;;7.47;1.90;;;;;;;-145.69;100.00;71842.19;5073362;28;20199;-73
2022/01/09 08:07:46;;;;;;;3.50;1.50;;;;;;;-145.69;100.00;71838.19;5073028;28;20720;-73
2022/01/09 08:10:13;;;;;;;2.93;1.40;;;;;;;-145.69;100.00;71832.22;5053136;28;20282;-74
2022/01/09 08:12:41;;;;;;;3.57;1.50;;;;;;;-145.69;100.00;71832.22;5053375;28;20204;-75
2022/01/09 08:15:08;;;;;;;3.30;1.50;;;;;;;-145.69;100.00;71832.22;5053308;28;20241;-74
2022/01/09 08:17:34;;;;;;;8.77;1.93;;;;;;;-145.69;100.00;71832.22;5053066;28;20579;-74
2022/01/09 08:20:01;;;;;;;6.33;1.53;;;;;;;-145.69;100.00;71834.22;5053054;28;20654;-74
2022/01/09 08:22:29;;;;;;;7.93;2.13;;;;;;;-145.69;100.00;71848.16;5052939;28;20741;-73
2022/01/09 08:24:56;;;;;;;10.40;1.80;;;;;;;-145.69;100.00;71848.16;5052903;28;20203;-73
2022/01/09 08:27:23;;;;;;;8.23;1.40;;;;;;;-145.69;100.00;71844.16;5052415;28;20238;-74
2022/01/09 08:29:49;;;;;;;9.73;1.70;;;;;;;-145.69;100.00;71848.16;5053127;28;20206;-74
2022/01/09 08:32:16;;;;;;;7.93;1.87;;;;;;;-145.69;100.00;71854.13;5053090;28;20204;-73
2022/01/09 08:34:42;;;;;;;5.30;1.30;;;;;;;-145.69;100.00;71868.06;5052856;28;20210;-73
2022/01/09 08:37:11;;;;;;;11.10;1.60;;;;;;;-145.69;100.00;71881.97;5052865;28;20211;-74
2022/01/09 08:39:39;;;;;;;6.67;1.60;;;;;;;-145.69;100.00;71881.97;5070052;28;20619;-73
2022/01/09 08:42:05;;;;;;;9.27;1.73;;;;;;;-145.69;100.00;71883.97;5072860;28;20246;-73
2022/01/09 08:44:32;;;;;;;5.13;1.33;;;;;;;-145.69;100.00;71880.00;5072736;28;20672;-74
2022/01/09 08:46:58;;;;;;;4.30;1.67;;;;;;;-145.69;100.00;71880.00;5072735;28;20202;-74
2022/01/09 08:49:25;;;;;;;7.53;1.52;;;;;;;-145.69;100.00;71868.06;5072451;28;20462;-74
2022/01/09 08:51:52;;;;;;;13.80;1.90;;;;;;;-145.69;100.00;71860.09;5072769;28;20210;-74
2022/01/09 08:54:19;;;;;;;12.60;2.00;;;;;;;-145.69;100.00;71876.00;5063837;28;20204;-74
2022/01/09 08:56:47;;;;;;;12.57;1.77;;;;;;;-145.69;100.00;71870.03;5052817;28;20199;-74
2022/01/09 08:59:13;;;;;;;7.80;1.90;;;;;;;-145.69;100.00;71860.09;5055441;28;20204;-74
2022/01/09 09:01:40;;;;;;;10.80;2.03;;;;;;;-145.69;100.00;71872.03;5056884;28;20536;-73
2022/01/09 09:04:06;;;;;;;8.37;1.70;;;;;;;-145.69;100.00;71856.09;5056715;28;20199;-74
2022/01/09 09:06:33;;;;;;;12.50;2.50;;;;;;;-145.69;100.00;71860.09;5056553;28;20691;-74
2022/01/09 09:09:00;;;;;;;14.53;1.93;;;;;;;-145.69;100.00;71854.13;5069006;28;20688;-73
2022/01/09 09:11:26;;;;;;;10.70;2.00;;;;;;;-145.69;100.00;71850.13;5076807;28;20225;-74
2022/01/09 09:13:54;;;;;;;6.63;1.73;;;;;;;-145.69;100.00;71846.16;5076605;28;20198;-74
2022/01/09 09:16:20;;;;;;;14.60;1.63;;;;;;;-145.69;100.00;71848.16;5076349;28;20553;-74
2022/01/09 09:18:48;;;;;;;12.00;3.33;;;;;;;-145.69;100.00;71850.13;5076480;28;20203;-74
2022/01/09 09:21:16;;;;;;;7.93;1.90;;;;;;;-145.69;100.00;71854.13;5076506;28;20198;-74
2022/01/09 09:23:42;;;;;;;3.67;1.13;;;;;;;-145.69;100.00;71844.16;5076630;28;20570;-73
2022/01/09 09:26:10;;;;;;;8.37;1.93;;;;;;;-145.69;100.00;71828.25;5076457;28;20199;-74
2022/01/09 09:28:37;;;;;;;13.93;2.67;;;;;;;-145.69;100.00;71830.25;5076191;28;20233;-74
2022/01/09 09:31:05;;;;;;;12.27;2.87;;;;;;;-145.69;100.00;71822.28;5076284;28;20199;-74
2022/01/09 09:33:32;;;;;;;9.63;1.77;;;;;;;-145.69;100.00;71836.22;5076011;28;20198;-74
2022/01/09 09:35:59;;;;;;;7.13;1.73;;;;;;;-145.69;100.00;71866.06;5076182;28;20199;-74
2022/01/09 09:38:27;;;;;;;13.33;2.00;;;;;;;-145.69;100.00;71880.00;5076040;28;20194;-74
2022/01/09 09:40:53;;;;;;;9.37;1.60;;;;;;;-145.69;100.00;71866.06;5076239;28;20225;-74
2022/01/09 09:43:20;;;;;;;8.53;2.20;;;;;;;-145.69;100.00;71848.16;5075808;28;20235;-74
2022/01/09 09:45:46;;;;;;;9.20;2.07;;;;;;;-145.69;100.00;71836.22;5076020;28;20206;-74
2022/01/09 09:48:14;;;;;;;6.17;2.00;;;;;;;-145.69;100.00;71836.22;5075751;28;20597;-74
2022/01/09 09:50:41;;;;;;;12.13;2.30;;;;;;;-145.69;100.00;71824.25;5076036;28;20198;-74
2022/01/09 09:53:08;;;;;;;6.97;1.53;;;;;;;-145.69;100.00;71840.19;5075855;28;20285;-74
2022/01/09 09:55:34;;;;;;;12.37;1.73;;;;;;;-145.69;100.00;71860.09;5075917;28;20203;-74
2022/01/09 09:58:01;;;;;;;7.40;1.30;;;;;;;-145.69;100.00;71850.13;5075731;28;20199;-74
2022/01/09 10:00:28;;;;;;;8.73;1.67;;;;;;;-145.69;100.00;71846.16;5075330;28;20195;-74
2022/01/09 10:02:56;;;;;;;7.17;1.57;;;;;;;-145.69;100.00;71832.22;5075654;28;20194;-75
2022/01/09 10:05:25;;;;;;;6.63;1.70;;;;;;;-145.69;100.00;71846.16;5075652;28;20210;-75
2022/01/09 10:07:53;;;;;;;7.73;1.57;;;;;;;-145.69;100.00;71812.31;5075632;28;20222;-75
2022/01/09 10:10:22;;;;;;;6.20;1.10;;;;;;;-145.69;100.00;71848.16;5074742;28;20203;-75
2022/01/09 10:12:49;;;;;;;4.73;1.50;;;;;;;-145.69;100.00;71840.19;5075562;28;20206;-75
2022/01/09 10:15:18;;;;;;;7.37;1.40;;;;;;;-145.69;100.00;71830.25;5075437;28;20672;-76
2022/01/09 10:17:46;;;;;;;7.33;1.60;;;;;;;-145.69;100.00;71818.31;5075616;28;20226;-75
2022/01/09 10:20:17;;;;;;;4.87;1.40;;;;;;;-145.69;100.00;71808.34;5075547;28;20210;-75
2022/01/09 10:22:49;;;;;;;7.43;1.57;;;;;;;-145.69;100.00;71812.31;5075471;28;20199;-75
2022/01/09 10:25:32;;;;;;;3.33;1.57;;;;;;;-145.69;100.00;71808.34;5075258;28;20205;-76
2022/01/09 10:28:05;;;;;;;6.10;1.33;;;;;;;-145.69;100.00;71772.53;5075496;28;20584;-76
2022/01/09 10:30:35;;;;;;;4.33;1.53;;;;;;;-145.69;100.00;71744.66;5075192;28;20191;-76
2022/01/09 10:33:05;;;;;;;5.63;1.40;;;;;;;-145.69;100.00;71720.78;5075223;28;20207;-75
2022/01/09 10:35:32;;;;;;;5.13;1.20;;;;;;;-145.69;100.00;71718.78;5075223;28;20210;-75
2022/01/09 10:38:22;;;;;;;8.77;1.47;;;;;;;-145.69;100.00;71708.84;5075088;28;20198;-74
2022/01/09 10:40:53;;;;;;;3.23;1.00;;;;;;;-145.69;100.00;71734.72;5075052;28;20207;-75
2022/01/09 10:43:23;;;;;;;4.77;1.20;;;;;;;-145.69;100.00;71730.72;5074757;28;20234;-74
2022/01/09 10:45:59;;;;;;;6.60;1.57;;;;;;;-145.69;100.00;71732.72;5074965;28;20199;-74
2022/01/09 10:48:27;;;;;;;5.10;1.40;;;;;;;-145.69;100.00;71724.75;5074757;28;20715;-75
2022/01/09 10:50:58;;;;;;;10.67;1.43;;;;;;;-145.69;100.00;71768.53;5074959;28;20206;-74
2022/01/09 10:53:29;;;;;;;4.30;1.00;;;;;;;-145.69;100.00;71788.44;5074726;28;20669;-73
2022/01/09 10:56:06;;;;;;;2.17;0.83;;;;;;;-145.69;100.00;71796.41;5058320;28;20211;-73
2022/01/09 10:58:35;;;;;;;6.20;1.40;;;;;;;-145.69;100.00;71804.38;5054444;28;20535;-73
2022/01/09 11:01:13;;;;;;;6.23;1.57;;;;;;;-145.69;100.00;71804.38;5066227;28;20703;-73
2022/01/09 11:03:41;;;;;;;12.23;1.43;;;;;;;-145.69;100.00;71794.41;5074127;28;20667;-73
2022/01/09 11:06:09;;;;;;;7.20;1.30;;;;;;;-145.69;100.00;71798.41;5074289;28;20224;-74
2022/01/09 11:08:40;;;;;;;7.33;1.43;;;;;;;-145.69;100.00;71798.41;5074324;28;20313;-75
2022/01/09 11:11:16;;;;;;;7.17;1.40;;;;;;;-145.69;100.00;71786.47;5074307;28;20199;-73